Decoded Metar for KSDM (SAN DIEGO/BROWN in CA, USA) (IATA:SDM) | Meteo·Mobile Aviation Weather
aviador You're here:

KSDM Decoded Metar

SAN DIEGO/BROWN in CA, USA
Report Time2018-11-12 22:53:00
UTC Time2018-11-12 23:05:11
Flight Rules vfr VFR
Wind120° at 15 kt
W.Decomp.*RWY 08: 13.5 kt HW 6.6 kt RCW
W.Rank120° ranks 9
Current wind is above 120° avg. (5.1)
Visibility9999 m
Phenomena:N/A
Clouds:N/A
Expected CloudBase > 15,200 ft AGL from Temp-Dew spread
CeilingNone
Temp24°C (ISA +10)
Dew Point-14°C (7% RH)
AAT15.3°C
QNH1022 hPa
Density Alt1,421 ft
Elevation522 ft
Report Wrong Elevation
Raw Report
KSDM 122253Z 12015KT 10SM CLR 24/M14 A3018 RMK AO2 SLP218
T02391139=

Extra information for KSDM:More info

Metar Taf Metar & Taf Last 4 Metars F.Rules Stats Wind Profile Meteogram Temp Stats Airport Information Weather charts Add Link Nearby VenuesMetar ALERT Operation Metar Decoded Social comments

AIRNAV info for KSDM